Time;durP1;ratioP1;P1;durP2;ratioP2;P2;SDS_P1;SDS_P2;PMS_P1;PMS_P2;Temp;Humidity;BMP_temperature;BMP_pressure;BME280_temperature;BME280_humidity;BME280_pressure;Samples;Min_cycle;Max_cycle;Signal;HPM_P1;HPM_P2
2023/08/03 00:04:51;;;;;;;0.20;0.00;;;;;;;;;;5010665;28;20084;-83
2023/08/03 00:07:23;;;;;;;0.20;0.10;;;;;;;;;;4988865;28;20049;-83
2023/08/03 00:10:13;;;;;;;0.20;0.10;;;;;;;;;;5012582;28;20049;-81
2023/08/03 00:12:51;;;;;;;0.20;0.10;;;;;;;;;;5011856;28;20401;-81
2023/08/03 00:15:32;;;;;;;0.20;0.00;;;;;;;;;;5008110;28;20133;-83
2023/08/03 00:17:59;;;;;;;0.20;0.00;;;;;;;;;;4995560;28;20041;-83
2023/08/03 00:23:38;;;;;;;0.20;0.10;;;;;;;;;;5019652;28;20545;-83
2023/08/03 00:26:37;;;;;;;0.20;0.10;;;;;;;;;;5002037;28;20052;-82
2023/08/03 00:33:05;;;;;;;0.20;0.00;;;;;;;;;;4914457;29;20051;-83
2023/08/03 00:38:31;;;;;;;0.20;0.10;;;;;;;;;;4906729;29;20055;-83
2023/08/03 00:44:23;;;;;;;0.20;0.10;;;;;;;;;;5014349;28;20048;-84
2023/08/03 00:47:07;;;;;;;0.20;0.10;;;;;;;;;;5004336;28;20136;-81
2023/08/03 00:49:58;;;;;;;0.20;0.08;;;;;;;;;;5007807;28;20060;-82
2023/08/03 00:53:51;;;;;;;;;;;;;;;;;;;;;
2023/08/03 00:56:01;;;;;;;0.20;0.00;;;;;;;;;;5012991;28;20042;-82
2023/08/03 00:58:30;;;;;;;0.20;0.10;;;;;;;;;;5002853;28;20053;-82
2023/08/03 01:01:31;;;;;;;;;;;;;;;;;;;;;
2023/08/03 01:04:23;;;;;;;0.20;0.10;;;;;;;;;;5018593;28;20081;-82
2023/08/03 01:17:08;;;;;;;0.20;0.10;;;;;;;;;;4982857;28;20180;-82
2023/08/03 01:19:37;;;;;;;0.20;0.00;;;;;;;;;;5001808;28;20077;-81
2023/08/03 01:22:11;;;;;;;0.20;0.03;;;;;;;;;;5000773;28;20350;-80
2023/08/03 01:24:37;;;;;;;0.20;0.10;;;;;;;;;;5009819;28;20060;-82
2023/08/03 01:27:31;;;;;;;0.20;0.00;;;;;;;;;;5020476;28;20025;-84
2023/08/03 01:30:20;;;;;;;0.20;0.10;;;;;;;;;;5006309;28;20065;-82
2023/08/03 01:33:18;;;;;;;0.20;0.00;;;;;;;;;;5015223;28;20414;-83
2023/08/03 01:35:44;;;;;;;0.20;0.10;;;;;;;;;;4997630;28;20096;-81
2023/08/03 01:38:18;;;;;;;0.20;0.10;;;;;;;;;;5003550;28;20323;-85
2023/08/03 01:40:53;;;;;;;0.20;0.00;;;;;;;;;;4997192;28;20038;-84
2023/08/03 01:43:25;;;;;;;0.20;0.10;;;;;;;;;;4995377;28;20073;-83
2023/08/03 01:46:05;;;;;;;0.20;0.00;;;;;;;;;;4997731;28;20115;-83
2023/08/03 01:48:40;;;;;;;0.20;0.03;;;;;;;;;;5016007;28;20053;-84
2023/08/03 01:51:12;;;;;;;0.20;0.10;;;;;;;;;;5003239;28;20203;-82
2023/08/03 01:53:40;;;;;;;0.20;0.10;;;;;;;;;;5015603;28;20104;-84
2023/08/03 01:56:06;;;;;;;0.20;0.10;;;;;;;;;;5000339;28;20046;-83
2023/08/03 01:58:53;;;;;;;0.20;0.00;;;;;;;;;;5004477;28;20053;-83
2023/08/03 02:01:19;;;;;;;0.20;0.10;;;;;;;;;;5009412;28;20214;-84
2023/08/03 02:03:45;;;;;;;0.20;0.10;;;;;;;;;;4995181;28;20192;-84
2023/08/03 02:06:15;;;;;;;0.20;0.10;;;;;;;;;;5004752;28;20068;-84
2023/08/03 02:08:41;;;;;;;0.20;0.00;;;;;;;;;;5011137;28;20406;-84
2023/08/03 02:11:07;;;;;;;0.20;0.10;;;;;;;;;;4988015;28;20034;-84
2023/08/03 02:13:43;;;;;;;;;;;;;;;;;;;;;
2023/08/03 02:16:12;;;;;;;0.20;0.10;;;;;;;;;;5006480;28;20057;-85
2023/08/03 02:18:42;;;;;;;0.20;0.00;;;;;;;;;;5001992;28;20041;-83
2023/08/03 02:21:19;;;;;;;0.20;0.10;;;;;;;;;;4995546;28;20030;-84
2023/08/03 02:23:57;;;;;;;0.20;0.10;;;;;;;;;;5000308;28;20053;-83
2023/08/03 02:26:25;;;;;;;0.20;0.10;;;;;;;;;;4999709;28;20175;-84
2023/08/03 02:29:02;;;;;;;0.20;0.00;;;;;;;;;;4996539;28;20046;-84
2023/08/03 02:31:31;;;;;;;0.20;0.10;;;;;;;;;;5008556;28;20037;-84
2023/08/03 02:33:57;;;;;;;0.20;0.10;;;;;;;;;;4990954;28;20316;-83
2023/08/03 02:36:23;;;;;;;0.20;0.10;;;;;;;;;;5000493;28;20046;-83
2023/08/03 02:38:49;;;;;;;0.20;0.00;;;;;;;;;;4992710;28;20073;-84
2023/08/03 02:41:15;;;;;;;0.20;0.10;;;;;;;;;;4997572;28;20030;-83
2023/08/03 02:44:07;;;;;;;0.20;0.20;;;;;;;;;;4996493;28;20057;-83
2023/08/03 02:46:42;;;;;;;0.20;0.00;;;;;;;;;;4983346;28;20068;-84
2023/08/03 02:49:10;;;;;;;0.20;0.00;;;;;;;;;;5006820;28;20451;-85
2023/08/03 02:51:42;;;;;;;0.20;0.10;;;;;;;;;;5007077;28;20111;-85
2023/08/03 02:54:14;;;;;;;0.20;0.08;;;;;;;;;;4988487;28;20060;-83
2023/08/03 02:56:40;;;;;;;0.20;0.00;;;;;;;;;;5008596;28;21429;-83
2023/08/03 02:59:10;;;;;;;0.20;0.10;;;;;;;;;;4999005;28;20091;-84
2023/08/03 03:01:40;;;;;;;0.20;0.10;;;;;;;;;;4988977;28;20037;-84
2023/08/03 03:04:12;;;;;;;0.20;0.05;;;;;;;;;;5003359;28;20064;-84
2023/08/03 03:06:38;;;;;;;0.20;0.00;;;;;;;;;;4998072;28;20038;-85
2023/08/03 03:09:07;;;;;;;0.20;0.10;;;;;;;;;;4994290;28;20409;-84
2023/08/03 03:11:34;;;;;;;0.20;0.10;;;;;;;;;;4991915;28;20170;-84
2023/08/03 03:14:00;;;;;;;0.20;0.00;;;;;;;;;;5010777;28;20053;-86
2023/08/03 03:16:26;;;;;;;0.22;0.08;;;;;;;;;;4992897;28;20146;-82
2023/08/03 03:18:52;;;;;;;0.20;0.10;;;;;;;;;;5005747;28;20044;-83
2023/08/03 03:21:19;;;;;;;0.20;0.00;;;;;;;;;;4995752;28;20052;-82
2023/08/03 03:23:46;;;;;;;0.20;0.00;;;;;;;;;;4992642;28;20403;-84
2023/08/03 03:26:22;;;;;;;0.20;0.10;;;;;;;;;;4988018;28;20038;-86
2023/08/03 03:28:48;;;;;;;0.20;0.00;;;;;;;;;;4986961;28;20112;-84
2023/08/03 03:31:14;;;;;;;0.20;0.10;;;;;;;;;;5006052;28;20041;-85
2023/08/03 03:33:40;;;;;;;0.20;0.10;;;;;;;;;;4989381;28;20056;-83
2023/08/03 03:36:06;;;;;;;0.40;0.10;;;;;;;;;;4986192;28;20116;-85
2023/08/03 03:38:32;;;;;;;0.20;0.10;;;;;;;;;;4983647;28;20521;-85
2023/08/03 03:40:58;;;;;;;0.20;0.10;;;;;;;;;;4992545;28;20037;-84
2023/08/03 03:43:24;;;;;;;0.20;0.00;;;;;;;;;;4998777;28;20601;-83
2023/08/03 03:45:50;;;;;;;0.20;0.10;;;;;;;;;;5003082;28;20076;-84
2023/08/03 03:48:16;;;;;;;0.20;0.05;;;;;;;;;;4997041;28;20037;-83
2023/08/03 03:50:43;;;;;;;0.20;0.20;;;;;;;;;;4989590;28;20639;-80
2023/08/03 03:53:09;;;;;;;0.20;0.00;;;;;;;;;;5007532;28;20407;-83
2023/08/03 03:55:35;;;;;;;0.20;0.10;;;;;;;;;;4987775;28;20104;-83
2023/08/03 03:58:02;;;;;;;0.20;0.00;;;;;;;;;;4979460;28;20494;-86
2023/08/03 04:00:28;;;;;;;0.20;0.08;;;;;;;;;;5005676;28;20116;-85
2023/08/03 04:02:54;;;;;;;0.20;0.00;;;;;;;;;;4998024;28;20395;-83
2023/08/03 04:05:23;;;;;;;0.65;0.30;;;;;;;;;;4990514;28;20616;-86
2023/08/03 04:07:58;;;;;;;0.20;0.10;;;;;;;;;;5145797;23;20038;-84
2023/08/03 04:10:35;;;;;;;0.20;0.00;;;;;;;;;;4991427;28;20109;-85
2023/08/03 04:13:07;;;;;;;0.20;0.03;;;;;;;;;;4992354;28;20056;-90
2023/08/03 04:16:06;;;;;;;;;;;;;;;;;;4921318;28;20039;-85
2023/08/03 04:18:32;;;;;;;0.20;0.10;;;;;;;;;;4902219;29;20448;-84
2023/08/03 04:20:58;;;;;;;0.20;0.10;;;;;;;;;;4896804;28;20039;-86
2023/08/03 04:23:30;;;;;;;0.20;0.10;;;;;;;;;;4897173;29;20063;-87
2023/08/03 04:26:12;;;;;;;0.20;0.10;;;;;;;;;;4892461;29;20054;-85
2023/08/03 04:32:05;;;;;;;0.20;0.10;;;;;;;;;;4888809;29;20047;-86
2023/08/03 04:34:49;;;;;;;0.65;0.65;;;;;;;;;;4889835;28;20050;-86
2023/08/03 04:37:29;;;;;;;0.20;0.10;;;;;;;;;;4943945;28;20081;-85
2023/08/03 04:40:13;;;;;;;0.20;0.00;;;;;;;;;;4954629;28;20104;-86
2023/08/03 04:42:42;;;;;;;0.20;0.00;;;;;;;;;;4972427;28;20526;-85
2023/08/03 04:45:17;;;;;;;0.20;0.00;;;;;;;;;;4956677;28;20427;-85
2023/08/03 04:47:43;;;;;;;0.20;0.20;;;;;;;;;;4973782;23;20050;-84
2023/08/03 04:50:09;;;;;;;0.20;0.00;;;;;;;;;;5006061;28;20041;-87
2023/08/03 04:52:35;;;;;;;0.20;0.10;;;;;;;;;;4997155;28;20533;-87
2023/08/03 04:55:01;;;;;;;0.20;0.10;;;;;;;;;;5000884;28;20033;-86
2023/08/03 04:57:27;;;;;;;0.20;0.10;;;;;;;;;;4993853;28;20460;-86
2023/08/03 04:59:56;;;;;;;0.20;0.10;;;;;;;;;;4985772;28;20038;-87
2023/08/03 05:02:22;;;;;;;0.20;0.10;;;;;;;;;;4985479;28;20081;-91
2023/08/03 05:04:50;;;;;;;0.20;0.10;;;;;;;;;;4991089;28;20080;-87
2023/08/03 05:07:18;;;;;;;0.20;0.00;;;;;;;;;;4987430;28;20149;-86
2023/08/03 05:09:52;;;;;;;0.20;0.10;;;;;;;;;;4984513;28;20046;-87
2023/08/03 05:12:21;;;;;;;0.20;0.00;;;;;;;;;;4993424;28;20046;-86
2023/08/03 05:14:50;;;;;;;0.20;0.10;;;;;;;;;;4991172;28;20038;-84
2023/08/03 05:17:25;;;;;;;0.20;0.10;;;;;;;;;;5005676;28;20052;-87
2023/08/03 05:19:57;;;;;;;0.20;0.10;;;;;;;;;;4991963;28;20045;-86
2023/08/03 05:22:25;;;;;;;0.20;0.10;;;;;;;;;;4990356;28;20042;-87
2023/08/03 05:24:51;;;;;;;0.20;0.10;;;;;;;;;;4986941;28;20049;-86
2023/08/03 05:27:23;;;;;;;0.20;0.10;;;;;;;;;;4985783;28;20037;-86
2023/08/03 05:29:51;;;;;;;0.20;0.00;;;;;;;;;;5003757;28;20120;-85
2023/08/03 05:32:17;;;;;;;0.20;0.10;;;;;;;;;;4987999;28;20045;-85
2023/08/03 05:34:46;;;;;;;0.20;0.10;;;;;;;;;;4985043;28;20116;-86
2023/08/03 05:37:15;;;;;;;0.20;0.10;;;;;;;;;;5003414;28;20041;-85
2023/08/03 05:39:41;;;;;;;0.20;0.00;;;;;;;;;;4988668;28;20188;-87
2023/08/03 05:42:10;;;;;;;0.20;0.00;;;;;;;;;;4980995;28;20049;-87
2023/08/03 05:44:36;;;;;;;0.30;0.30;;;;;;;;;;4980583;28;20510;-83
2023/08/03 05:47:02;;;;;;;0.20;0.10;;;;;;;;;;4992075;28;20046;-85
2023/08/03 05:49:29;;;;;;;0.20;0.10;;;;;;;;;;4978864;28;20037;-86
2023/08/03 05:51:55;;;;;;;0.20;0.08;;;;;;;;;;4984329;28;20052;-85
2023/08/03 05:54:21;;;;;;;0.20;0.10;;;;;;;;;;5001012;28;20046;-87
2023/08/03 05:56:47;;;;;;;0.20;0.10;;;;;;;;;;4983160;28;20156;-84
2023/08/03 05:59:18;;;;;;;0.20;0.10;;;;;;;;;;5007069;28;20041;-85
2023/08/03 06:01:50;;;;;;;0.20;0.10;;;;;;;;;;4989123;28;20185;-87
2023/08/03 06:04:19;;;;;;;0.20;0.00;;;;;;;;;;4999358;28;20033;-85
2023/08/03 06:06:49;;;;;;;0.20;0.00;;;;;;;;;;4985575;28;20761;-85
2023/08/03 06:09:15;;;;;;;0.20;0.10;;;;;;;;;;4996761;28;20516;-86
2023/08/03 06:11:42;;;;;;;0.52;0.38;;;;;;;;;;4999943;28;20046;-86
2023/08/03 06:14:11;;;;;;;0.40;0.30;;;;;;;;;;4997948;28;20037;-87
2023/08/03 06:16:51;;;;;;;0.20;0.10;;;;;;;;;;5003621;28;20659;-85
2023/08/03 06:19:17;;;;;;;0.20;0.10;;;;;;;;;;4986046;28;20049;-84
2023/08/03 06:21:43;;;;;;;0.20;0.03;;;;;;;;;;4989900;28;20041;-82
2023/08/03 06:24:09;;;;;;;0.20;0.10;;;;;;;;;;4985015;28;20048;-84
2023/08/03 06:26:39;;;;;;;0.20;0.00;;;;;;;;;;4984000;28;20517;-85
2023/08/03 06:29:05;;;;;;;0.20;0.00;;;;;;;;;;4972128;28;20030;-85
2023/08/03 06:31:32;;;;;;;0.20;0.08;;;;;;;;;;4983331;28;20725;-83
2023/08/03 06:33:58;;;;;;;0.20;0.10;;;;;;;;;;4982765;28;20038;-83
2023/08/03 06:36:27;;;;;;;0.20;0.10;;;;;;;;;;4998209;28;20069;-85
2023/08/03 06:38:53;;;;;;;0.20;0.10;;;;;;;;;;4983093;28;20173;-85
2023/08/03 06:41:20;;;;;;;0.20;0.00;;;;;;;;;;4980706;28;20034;-85
2023/08/03 06:43:46;;;;;;;0.20;0.10;;;;;;;;;;4986213;28;20046;-87
2023/08/03 06:46:12;;;;;;;0.20;0.10;;;;;;;;;;4983505;28;20091;-87
2023/08/03 06:48:38;;;;;;;0.20;0.10;;;;;;;;;;4986295;28;20050;-85
2023/08/03 06:51:10;;;;;;;0.20;0.10;;;;;;;;;;4982776;28;20034;-86
2023/08/03 06:53:36;;;;;;;0.20;0.10;;;;;;;;;;4979221;28;20041;-84
2023/08/03 06:56:03;;;;;;;0.20;0.10;;;;;;;;;;4979063;28;20072;-85
2023/08/03 06:58:32;;;;;;;0.20;0.10;;;;;;;;;;4991800;28;20034;-85
2023/08/03 07:03:53;;;;;;;0.20;0.10;;;;;;;;;;4989083;28;20056;-85
2023/08/03 07:06:19;;;;;;;0.20;0.10;;;;;;;;;;4979132;28;20076;-85
2023/08/03 07:08:54;;;;;;;0.75;0.35;;;;;;;;;;4975886;28;20064;-83
2023/08/03 07:11:30;;;;;;;;;;;;;;;;;;;;;
2023/08/03 07:13:56;;;;;;;0.77;0.17;;;;;;;;;;5002841;28;20037;-86
2023/08/03 07:16:26;;;;;;;0.20;0.10;;;;;;;;;;4999910;28;20072;-84
2023/08/03 07:18:58;;;;;;;0.20;0.10;;;;;;;;;;5013024;23;20100;-85
2023/08/03 07:21:33;;;;;;;0.20;0.10;;;;;;;;;;4965030;28;20053;-86
2023/08/03 07:24:06;;;;;;;0.20;0.00;;;;;;;;;;4979456;28;20180;-86
2023/08/03 07:26:41;;;;;;;0.20;0.00;;;;;;;;;;4967112;28;20582;-86
2023/08/03 07:29:23;;;;;;;0.20;0.10;;;;;;;;;;4965642;28;20042;-86
2023/08/03 07:31:53;;;;;;;0.20;0.10;;;;;;;;;;4947953;28;20049;-85
2023/08/03 07:34:24;;;;;;;0.20;0.00;;;;;;;;;;4956956;28;20050;-87
2023/08/03 07:36:54;;;;;;;0.20;0.10;;;;;;;;;;4949455;28;20474;-85
2023/08/03 07:39:20;;;;;;;0.20;0.10;;;;;;;;;;4961396;28;20050;-86
2023/08/03 07:41:50;;;;;;;0.20;0.10;;;;;;;;;;4972906;28;20039;-87
2023/08/03 07:44:17;;;;;;;0.20;0.10;;;;;;;;;;4944965;28;20046;-86
2023/08/03 07:46:49;;;;;;;0.20;0.00;;;;;;;;;;4944076;28;20404;-84
2023/08/03 07:49:15;;;;;;;0.20;0.00;;;;;;;;;;4953519;28;20070;-84
2023/08/03 07:51:52;;;;;;;0.20;0.00;;;;;;;;;;4944592;28;20046;-90
2023/08/03 07:54:22;;;;;;;0.20;0.10;;;;;;;;;;4950568;28;20044;-88
2023/08/03 07:59:49;;;;;;;0.20;0.10;;;;;;;;;;5027171;28;20053;-85
2023/08/03 08:02:35;;;;;;;0.20;0.10;;;;;;;;;;5021580;28;20068;-86
2023/08/03 08:08:26;;;;;;;0.20;0.00;;;;;;;;;;5025083;28;20544;-86
2023/08/03 08:11:05;;;;;;;0.20;0.00;;;;;;;;;;5038737;28;20132;-90
2023/08/03 08:20:20;;;;;;;0.20;0.10;;;;;;;;;;5022385;28;21023;-92
2023/08/03 08:22:59;;;;;;;0.20;0.10;;;;;;;;;;5027640;28;20041;-87
2023/08/03 08:25:45;;;;;;;0.20;0.00;;;;;;;;;;5009547;28;20041;-86
2023/08/03 08:28:56;;;;;;;0.20;0.10;;;;;;;;;;5033843;28;20116;-89
2023/08/03 08:31:49;;;;;;;;;;;;;;;;;;;;;
2023/08/03 08:37:45;;;;;;;0.20;0.00;;;;;;;;;;5013604;22;20505;-89
2023/08/03 08:40:19;;;;;;;0.20;0.00;;;;;;;;;;5000820;28;20038;-87
2023/08/03 08:43:00;;;;;;;0.20;0.10;;;;;;;;;;4990936;28;20049;-86
2023/08/03 08:45:47;;;;;;;0.20;0.10;;;;;;;;;;4985946;28;20548;-89
2023/08/03 08:48:25;;;;;;;0.20;0.00;;;;;;;;;;4975907;28;20046;-88
2023/08/03 08:50:55;;;;;;;0.20;0.00;;;;;;;;;;4970681;28;20052;-88
2023/08/03 08:53:59;;;;;;;0.20;0.00;;;;;;;;;;4971412;28;20340;-88
2023/08/03 08:56:37;;;;;;;0.20;0.10;;;;;;;;;;4959542;28;20045;-86
2023/08/03 08:59:54;;;;;;;;;;;;;;;;;;;;;
2023/08/03 09:06:05;;;;;;;0.20;0.00;;;;;;;;;;4945823;28;20074;-86
2023/08/03 09:08:59;;;;;;;0.20;0.10;;;;;;;;;;4951045;28;20445;-85
2023/08/03 09:11:41;;;;;;;0.20;0.00;;;;;;;;;;4990556;28;20118;-90
2023/08/03 09:14:24;;;;;;;0.20;0.00;;;;;;;;;;4953818;28;20050;-91
2023/08/03 09:17:12;;;;;;;0.20;0.00;;;;;;;;;;4977904;28;20038;-88
2023/08/03 09:19:51;;;;;;;0.20;0.10;;;;;;;;;;4958455;28;20503;-87
2023/08/03 09:28:51;;;;;;;0.20;0.00;;;;;;;;;;4982129;28;20044;-88
2023/08/03 09:31:17;;;;;;;;;;;;;;;;;;4971675;28;20042;-86
2023/08/03 09:33:43;;;;;;;0.20;0.10;;;;;;;;;;4983138;28;19925;-85
2023/08/03 09:39:21;;;;;;;0.20;0.10;;;;;;;;;;5045926;23;20057;-89
2023/08/03 09:41:49;;;;;;;0.20;0.10;;;;;;;;;;4989489;28;20060;-88
2023/08/03 09:44:36;;;;;;;0.20;0.10;;;;;;;;;;4986317;28;20092;-89
2023/08/03 09:47:11;;;;;;;0.20;0.10;;;;;;;;;;5018451;28;20614;-86
2023/08/03 09:50:05;;;;;;;0.20;0.10;;;;;;;;;;4969468;28;21501;-85
2023/08/03 09:52:42;;;;;;;0.20;0.08;;;;;;;;;;4963113;28;20053;-85
2023/08/03 09:58:26;;;;;;;;;;;;;;;;;;;;;
2023/08/03 10:01:30;;;;;;;0.20;0.10;;;;;;;;;;4983400;28;20038;-85
2023/08/03 10:04:12;;;;;;;0.20;0.00;;;;;;;;;;4986000;28;20876;-84
2023/08/03 10:06:48;;;;;;;0.20;0.00;;;;;;;;;;4970929;28;20041;-82
2023/08/03 10:09:47;;;;;;;0.20;0.10;;;;;;;;;;4966138;28;20046;-87
2023/08/03 10:12:25;;;;;;;0.20;0.00;;;;;;;;;;4950825;28;20056;-85
2023/08/03 10:14:54;;;;;;;0.20;0.00;;;;;;;;;;4963417;28;20038;-86
2023/08/03 10:17:41;;;;;;;0.20;0.10;;;;;;;;;;4961882;28;20046;-88
2023/08/03 10:20:08;;;;;;;0.20;0.00;;;;;;;;;;4960655;28;20042;-87
2023/08/03 10:26:36;;;;;;;0.20;0.10;;;;;;;;;;4898088;29;20126;-87
2023/08/03 10:29:41;;;;;;;;;;;;;;;;;;;;;
2023/08/03 10:32:45;;;;;;;0.20;0.00;;;;;;;;;;4996825;28;20149;-87
2023/08/03 10:35:45;;;;;;;0.20;0.10;;;;;;;;;;4978690;28;20105;-90
2023/08/03 10:38:28;;;;;;;0.20;0.00;;;;;;;;;;4967128;28;20060;-85
2023/08/03 10:44:34;;;;;;;0.20;0.10;;;;;;;;;;4973813;28;20192;-88
2023/08/03 10:49:45;;;;;;;0.45;0.30;;;;;;;;;;5023404;28;20056;-84
2023/08/03 10:52:46;;;;;;;0.20;0.08;;;;;;;;;;5013496;28;20040;-84
2023/08/03 10:55:28;;;;;;;0.20;0.08;;;;;;;;;;5004596;28;20513;-83
2023/08/03 10:57:57;;;;;;;0.20;0.10;;;;;;;;;;5016044;28;20045;-88
2023/08/03 11:00:23;;;;;;;0.20;0.10;;;;;;;;;;5015785;28;21459;-84
2023/08/03 11:02:52;;;;;;;0.22;0.08;;;;;;;;;;5015747;28;20513;-88
2023/08/03 11:05:19;;;;;;;0.20;0.10;;;;;;;;;;5031369;28;20033;-82
2023/08/03 11:07:46;;;;;;;0.20;0.10;;;;;;;;;;5032436;22;20061;-84
2023/08/03 11:10:13;;;;;;;0.20;0.00;;;;;;;;;;4991585;28;20566;-82
2023/08/03 11:12:43;;;;;;;0.20;0.10;;;;;;;;;;4981308;28;21202;-86
2023/08/03 11:15:18;;;;;;;0.20;0.10;;;;;;;;;;4975978;28;20041;-84
2023/08/03 11:17:49;;;;;;;0.20;0.00;;;;;;;;;;4972920;28;20042;-85
2023/08/03 11:20:17;;;;;;;0.20;0.10;;;;;;;;;;4972729;28;21303;-84
2023/08/03 11:22:46;;;;;;;0.20;0.10;;;;;;;;;;4981253;28;20045;-84
2023/08/03 11:25:28;;;;;;;;;;;;;;;;;;;;;
2023/08/03 11:28:03;;;;;;;0.20;0.00;;;;;;;;;;4989022;28;20352;-84
2023/08/03 11:30:29;;;;;;;0.20;0.00;;;;;;;;;;4992201;28;20046;-86
2023/08/03 11:33:01;;;;;;;3.15;0.40;;;;;;;;;;4983667;28;20454;-84
2023/08/03 11:35:30;;;;;;;0.20;0.00;;;;;;;;;;4979091;28;20519;-84
2023/08/03 11:37:59;;;;;;;0.22;0.17;;;;;;;;;;4978174;28;20419;-84
2023/08/03 11:40:25;;;;;;;0.20;0.10;;;;;;;;;;4980563;28;20038;-85
2023/08/03 11:43:19;;;;;;;0.20;0.10;;;;;;;;;;4983476;28;20456;-86
2023/08/03 11:46:00;;;;;;;0.20;0.03;;;;;;;;;;4999223;28;20076;-84
2023/08/03 11:48:39;;;;;;;0.20;0.10;;;;;;;;;;4991430;28;20038;-84
2023/08/03 11:51:11;;;;;;;0.20;0.10;;;;;;;;;;4968439;28;20612;-82
2023/08/03 11:53:48;;;;;;;0.30;0.30;;;;;;;;;;4978063;28;20459;-84
2023/08/03 11:56:20;;;;;;;1.75;1.27;;;;;;;;;;4993268;28;20125;-82
2023/08/03 11:58:56;;;;;;;0.20;0.00;;;;;;;;;;4978786;28;20050;-83
2023/08/03 12:01:28;;;;;;;;;;;;;;;;;;4990471;28;20384;-83
2023/08/03 12:04:26;;;;;;;0.20;0.10;;;;;;;;;;4990366;28;19928;-83
2023/08/03 12:06:53;;;;;;;0.20;0.10;;;;;;;;;;4991307;28;20046;-83
2023/08/03 12:09:21;;;;;;;0.20;0.10;;;;;;;;;;4984971;28;20407;-84
2023/08/03 12:11:50;;;;;;;0.20;0.10;;;;;;;;;;4983155;28;20041;-84
2023/08/03 12:14:17;;;;;;;0.30;0.28;;;;;;;;;;4973343;28;20334;-84
2023/08/03 12:16:52;;;;;;;0.22;0.20;;;;;;;;;;4993484;28;20133;-83
2023/08/03 12:19:20;;;;;;;0.20;0.10;;;;;;;;;;4984911;28;20049;-84
2023/08/03 12:21:47;;;;;;;0.20;0.10;;;;;;;;;;4997668;28;20095;-81
2023/08/03 12:24:13;;;;;;;0.20;0.10;;;;;;;;;;4982248;28;20467;-81
2023/08/03 12:26:42;;;;;;;0.20;0.10;;;;;;;;;;4991527;28;20538;-83
2023/08/03 12:29:09;;;;;;;0.20;0.10;;;;;;;;;;5009947;28;20049;-84
2023/08/03 12:31:41;;;;;;;0.20;0.05;;;;;;;;;;4978703;28;20053;-85
2023/08/03 12:34:17;;;;;;;0.20;0.10;;;;;;;;;;5014454;28;20041;-86
2023/08/03 12:36:45;;;;;;;0.20;0.10;;;;;;;;;;4998503;28;20046;-84
2023/08/03 12:39:12;;;;;;;0.20;0.00;;;;;;;;;;4980444;28;20418;-81
2023/08/03 12:41:38;;;;;;;0.20;0.10;;;;;;;;;;4996272;28;20041;-84
2023/08/03 12:44:04;;;;;;;0.20;0.00;;;;;;;;;;4999023;28;20042;-82
2023/08/03 12:46:30;;;;;;;0.20;0.10;;;;;;;;;;4998719;28;20042;-84
2023/08/03 12:48:58;;;;;;;0.20;0.10;;;;;;;;;;4998864;28;20063;-80
2023/08/03 12:51:24;;;;;;;0.20;0.00;;;;;;;;;;4985797;28;20042;-84
2023/08/03 12:53:50;;;;;;;0.20;0.00;;;;;;;;;;5001979;28;20077;-82
2023/08/03 12:56:18;;;;;;;0.20;0.10;;;;;;;;;;4993921;28;20037;-79
2023/08/03 12:58:44;;;;;;;0.20;0.00;;;;;;;;;;5022471;28;20037;-83
2023/08/03 13:01:10;;;;;;;0.20;0.10;;;;;;;;;;4977531;28;20416;-82
2023/08/03 13:03:37;;;;;;;0.20;0.00;;;;;;;;;;4996229;28;20042;-82
2023/08/03 13:06:04;;;;;;;0.20;0.10;;;;;;;;;;4988597;28;20038;-80
2023/08/03 13:08:30;;;;;;;0.20;0.10;;;;;;;;;;4982866;28;20079;-80
2023/08/03 13:10:56;;;;;;;0.20;0.10;;;;;;;;;;4979216;28;20743;-80
2023/08/03 13:13:22;;;;;;;0.20;0.10;;;;;;;;;;4974203;28;20045;-78
2023/08/03 13:15:48;;;;;;;0.20;0.13;;;;;;;;;;4979926;28;20209;-81
2023/08/03 13:18:15;;;;;;;0.20;0.00;;;;;;;;;;4977768;28;20039;-81
2023/08/03 13:20:41;;;;;;;0.20;0.10;;;;;;;;;;4971109;28;20041;-80
2023/08/03 13:23:07;;;;;;;0.20;0.10;;;;;;;;;;4995273;28;20045;-79
2023/08/03 13:25:33;;;;;;;0.20;0.00;;;;;;;;;;4994778;28;20093;-80
2023/08/03 13:28:00;;;;;;;0.20;0.10;;;;;;;;;;4981006;28;20115;-80
2023/08/03 13:30:26;;;;;;;0.40;0.22;;;;;;;;;;4995376;28;20034;-79
2023/08/03 13:32:52;;;;;;;0.20;0.00;;;;;;;;;;5003739;28;20057;-81
2023/08/03 13:35:18;;;;;;;0.20;0.10;;;;;;;;;;4983913;28;20077;-79
2023/08/03 13:37:44;;;;;;;0.20;0.10;;;;;;;;;;4983855;28;20034;-78
2023/08/03 13:40:11;;;;;;;0.20;0.10;;;;;;;;;;4997252;28;21155;-79
2023/08/03 13:42:37;;;;;;;0.20;0.03;;;;;;;;;;4985616;28;20037;-80
2023/08/03 13:45:04;;;;;;;0.20;0.10;;;;;;;;;;4996668;28;20038;-84
2023/08/03 13:47:30;;;;;;;0.20;0.10;;;;;;;;;;4992590;28;20038;-82
2023/08/03 13:49:56;;;;;;;0.20;0.00;;;;;;;;;;4993191;28;20038;-84
2023/08/03 13:52:22;;;;;;;0.20;0.10;;;;;;;;;;4993899;28;20076;-79
2023/08/03 13:54:48;;;;;;;0.20;0.10;;;;;;;;;;4993798;28;20038;-83
2023/08/03 13:57:16;;;;;;;0.20;0.13;;;;;;;;;;4990454;28;20041;-78
2023/08/03 13:59:42;;;;;;;0.20;0.00;;;;;;;;;;5004407;28;20049;-78
2023/08/03 14:02:09;;;;;;;0.20;0.00;;;;;;;;;;4994710;28;20152;-85
2023/08/03 14:04:35;;;;;;;0.20;0.10;;;;;;;;;;4986926;28;20038;-79
2023/08/03 14:07:01;;;;;;;0.20;0.00;;;;;;;;;;4987146;28;20045;-81
2023/08/03 14:09:27;;;;;;;0.20;0.10;;;;;;;;;;4983182;28;20038;-80
2023/08/03 14:11:53;;;;;;;0.20;0.10;;;;;;;;;;4979525;28;20458;-80
2023/08/03 14:14:19;;;;;;;0.20;0.10;;;;;;;;;;4981226;28;20127;-82
2023/08/03 14:16:48;;;;;;;0.20;0.10;;;;;;;;;;4979872;28;20034;-79
2023/08/03 14:19:15;;;;;;;0.20;0.10;;;;;;;;;;4981813;28;20045;-77
2023/08/03 14:21:41;;;;;;;0.20;0.10;;;;;;;;;;4982538;28;20089;-81
2023/08/03 14:24:07;;;;;;;0.20;0.10;;;;;;;;;;4979011;28;20069;-83
2023/08/03 14:26:33;;;;;;;0.20;0.10;;;;;;;;;;5002006;28;20070;-76
2023/08/03 14:28:59;;;;;;;0.20;0.10;;;;;;;;;;4996854;28;20096;-79
2023/08/03 14:31:25;;;;;;;0.20;0.00;;;;;;;;;;4997298;28;20117;-82
2023/08/03 14:33:51;;;;;;;0.20;0.08;;;;;;;;;;4995659;28;20046;-80
2023/08/03 14:36:17;;;;;;;0.20;0.10;;;;;;;;;;4993998;28;20048;-82
2023/08/03 14:38:43;;;;;;;0.20;0.10;;;;;;;;;;4982668;28;20050;-85
2023/08/03 14:41:14;;;;;;;0.20;0.10;;;;;;;;;;4983056;28;20048;-86
2023/08/03 14:43:41;;;;;;;0.20;0.00;;;;;;;;;;4979798;28;20042;-80
2023/08/03 14:46:13;;;;;;;0.20;0.10;;;;;;;;;;4994432;28;20038;-83
2023/08/03 14:48:39;;;;;;;0.20;0.10;;;;;;;;;;5001651;28;20097;-79
2023/08/03 14:51:05;;;;;;;0.52;0.47;;;;;;;;;;4986317;28;20042;-86
2023/08/03 14:53:31;;;;;;;0.40;0.30;;;;;;;;;;4981251;28;20049;-81
2023/08/03 14:56:01;;;;;;;0.20;0.10;;;;;;;;;;4983557;28;20103;-78
2023/08/03 14:58:27;;;;;;;0.20;0.08;;;;;;;;;;4996694;28;20097;-79
2023/08/03 15:00:53;;;;;;;0.20;0.10;;;;;;;;;;5000932;28;20037;-83
2023/08/03 15:03:20;;;;;;;0.20;0.10;;;;;;;;;;4985467;28;20044;-82
2023/08/03 15:05:48;;;;;;;0.20;0.10;;;;;;;;;;5009052;28;20307;-82
2023/08/03 15:08:16;;;;;;;0.20;0.10;;;;;;;;;;4991614;28;20037;-81
2023/08/03 15:10:42;;;;;;;0.20;0.10;;;;;;;;;;5020289;28;20132;-81
2023/08/03 15:13:08;;;;;;;0.20;0.10;;;;;;;;;;5004056;28;20038;-78
2023/08/03 15:15:34;;;;;;;0.30;0.30;;;;;;;;;;4980615;28;20026;-80
2023/08/03 15:18:00;;;;;;;0.20;0.10;;;;;;;;;;4994919;28;20585;-79
2023/08/03 15:20:33;;;;;;;0.20;0.10;;;;;;;;;;5000420;28;20102;-83
2023/08/03 15:22:59;;;;;;;0.35;0.10;;;;;;;;;;4982206;28;20034;-81
2023/08/03 15:25:25;;;;;;;0.20;0.10;;;;;;;;;;4979084;28;20056;-84
2023/08/03 15:27:52;;;;;;;0.20;0.05;;;;;;;;;;4976639;28;20042;-80
2023/08/03 15:30:19;;;;;;;0.20;0.03;;;;;;;;;;4996892;28;20424;-79
2023/08/03 15:32:47;;;;;;;0.20;0.15;;;;;;;;;;4982660;28;20096;-80
2023/08/03 15:35:14;;;;;;;0.98;0.40;;;;;;;;;;4978576;28;20201;-84
2023/08/03 15:37:40;;;;;;;0.20;0.00;;;;;;;;;;4996831;28;20723;-81
2023/08/03 15:40:07;;;;;;;0.20;0.10;;;;;;;;;;4993350;28;20100;-79
2023/08/03 15:42:33;;;;;;;0.20;0.10;;;;;;;;;;5005566;28;20065;-79
2023/08/03 15:44:59;;;;;;;0.20;0.10;;;;;;;;;;4990142;28;20045;-80
2023/08/03 15:47:28;;;;;;;0.20;0.10;;;;;;;;;;4997628;28;20034;-85
2023/08/03 15:49:54;;;;;;;0.20;0.10;;;;;;;;;;5004138;28;20497;-82
2023/08/03 15:52:20;;;;;;;0.20;0.00;;;;;;;;;;4984592;28;20120;-83
2023/08/03 15:54:46;;;;;;;0.20;0.10;;;;;;;;;;4982034;28;20132;-84
2023/08/03 15:57:13;;;;;;;0.30;0.20;;;;;;;;;;4987014;28;20061;-79
2023/08/03 15:59:40;;;;;;;0.20;0.10;;;;;;;;;;4981873;28;20105;-80
2023/08/03 16:02:06;;;;;;;0.20;0.10;;;;;;;;;;4982367;28;20038;-81
2023/08/03 16:04:32;;;;;;;0.20;0.15;;;;;;;;;;4988067;28;20040;-82
2023/08/03 16:06:58;;;;;;;0.65;0.20;;;;;;;;;;4977664;28;20041;-79
2023/08/03 16:09:24;;;;;;;0.20;0.10;;;;;;;;;;4986957;28;20030;-79
2023/08/03 16:11:50;;;;;;;0.20;0.10;;;;;;;;;;4995468;28;20136;-82
2023/08/03 16:14:16;;;;;;;0.20;0.10;;;;;;;;;;4981785;28;20178;-81
2023/08/03 16:16:42;;;;;;;0.20;0.10;;;;;;;;;;4996727;28;20070;-80
2023/08/03 16:19:13;;;;;;;0.20;0.13;;;;;;;;;;4987721;28;20050;-83
2023/08/03 16:21:39;;;;;;;0.50;0.30;;;;;;;;;;4982670;28;20057;-83
2023/08/03 16:24:05;;;;;;;0.20;0.10;;;;;;;;;;4980627;28;20053;-81
2023/08/03 16:26:31;;;;;;;0.20;0.10;;;;;;;;;;4978319;28;20038;-81
2023/08/03 16:28:57;;;;;;;0.30;0.20;;;;;;;;;;4989866;28;20039;-78
2023/08/03 16:31:23;;;;;;;0.20;0.10;;;;;;;;;;5007130;28;20065;-76
2023/08/03 16:33:50;;;;;;;0.20;0.10;;;;;;;;;;4983451;28;20049;-80
2023/08/03 16:36:20;;;;;;;0.20;0.10;;;;;;;;;;4996638;28;20056;-84